createdAt,value
2023-01-04T00:01:21.111Z,8.65
2023-01-04T00:04:24.337Z,10.90
2023-01-04T00:07:25.719Z,11.50
2023-01-04T00:10:28.421Z,9.23
2023-01-04T00:16:51.987Z,10.48
2023-01-04T00:19:55.233Z,10.60
2023-01-04T00:22:57.669Z,8.55
2023-01-04T00:26:00.237Z,10.75
2023-01-04T00:29:03.457Z,10.50
2023-01-04T00:32:06.076Z,10.55
2023-01-04T00:35:08.860Z,10.80
2023-01-04T00:38:11.438Z,11.77
2023-01-04T00:41:34.452Z,10.50
2023-01-04T00:44:36.449Z,9.93
2023-01-04T00:47:39.121Z,10.18
2023-01-04T00:50:44.036Z,10.45
2023-01-04T00:53:46.605Z,9.70
2023-01-04T00:56:49.179Z,9.93
2023-01-04T00:59:50.481Z,9.73
2023-01-04T01:06:13.556Z,10.30
2023-01-04T01:09:16.441Z,12.30
2023-01-04T01:12:18.997Z,10.98
2023-01-04T01:15:20.333Z,10.70
2023-01-04T01:18:22.933Z,11.63
2023-01-04T01:21:27.595Z,11.68
2023-01-04T01:27:49.811Z,10.52
2023-01-04T01:30:52.383Z,13.43
2023-01-04T01:33:55.421Z,9.60
2023-01-04T01:36:58.714Z,10.18
2023-01-04T01:40:00.002Z,10.40
2023-01-04T01:43:02.544Z,8.70
2023-01-04T01:46:05.534Z,11.03
2023-01-04T01:49:14.386Z,8.75
2023-01-04T01:52:22.718Z,10.55
2023-01-04T01:55:24.287Z,9.25
2023-01-04T01:58:32.291Z,9.05
2023-01-04T02:01:33.731Z,9.50
2023-01-04T02:04:38.510Z,9.18
2023-01-04T02:07:42.114Z,9.90
2023-01-04T02:10:44.657Z,9.98
2023-01-04T02:14:04.669Z,9.95
2023-01-04T02:17:18.018Z,9.90
2023-01-04T02:20:36.349Z,11.27
2023-01-04T02:24:08.279Z,9.57
2023-01-04T02:27:31.706Z,11.10
2023-01-04T02:30:58.712Z,11.38
2023-01-04T02:34:09.263Z,10.97
2023-01-04T02:37:17.985Z,10.18
2023-01-04T02:40:27.495Z,8.80
2023-01-04T02:43:57.170Z,8.77
2023-01-04T02:47:03.671Z,9.73
2023-01-04T02:50:31.546Z,11.03
2023-01-04T02:53:38.343Z,12.15
2023-01-04T02:56:53.009Z,11.05
2023-01-04T03:00:13.907Z,8.93
2023-01-04T03:03:42.983Z,9.35
2023-01-04T03:06:52.272Z,9.48
2023-01-04T03:10:01.526Z,9.10
2023-01-04T03:13:07.684Z,8.97
2023-01-04T03:16:14.820Z,11.30
2023-01-04T03:19:46.634Z,8.45
2023-01-04T03:23:14.181Z,8.75
2023-01-04T03:26:48.793Z,10.32
2023-01-04T03:30:15.069Z,9.47
2023-01-04T03:33:35.842Z,9.97
2023-01-04T03:36:59.487Z,9.88
2023-01-04T03:40:35.073Z,9.77
2023-01-04T03:44:02.305Z,10.40
2023-01-04T03:47:26.320Z,9.83
2023-01-04T03:50:32.929Z,12.27
2023-01-04T03:53:41.267Z,10.90
2023-01-04T03:56:46.345Z,9.02
2023-01-04T03:59:52.960Z,9.05
2023-01-04T04:03:06.354Z,10.67
2023-01-04T04:09:47.902Z,10.00
2023-01-04T04:12:51.220Z,13.13
2023-01-04T04:15:54.539Z,11.07
2023-01-04T04:18:57.591Z,9.87
2023-01-04T04:22:00.252Z,9.47
2023-01-04T04:25:01.702Z,10.13
2023-01-04T04:28:06.602Z,10.68
2023-01-04T04:31:08.320Z,10.52
2023-01-04T04:34:11.325Z,11.00
2023-01-04T04:37:13.941Z,9.27
2023-01-04T04:40:32.698Z,10.57
2023-01-04T04:43:35.090Z,11.02
2023-01-04T04:46:37.051Z,9.10
2023-01-04T04:49:39.658Z,9.33
2023-01-04T04:52:40.947Z,12.77
2023-01-04T04:55:42.241Z,11.27
2023-01-04T04:58:45.447Z,9.45
2023-01-04T05:01:48.183Z,12.38
2023-01-04T05:04:49.764Z,11.43
2023-01-04T05:07:52.300Z,11.43
2023-01-04T05:10:53.661Z,11.50
2023-01-04T05:13:56.635Z,9.07
2023-01-04T05:16:59.348Z,10.38
2023-01-04T05:20:00.764Z,9.43
2023-01-04T05:23:03.703Z,9.82
2023-01-04T05:26:05.370Z,9.57
2023-01-04T05:29:28.664Z,9.05
2023-01-04T05:32:31.006Z,8.20
2023-01-04T05:35:32.419Z,9.27
2023-01-04T05:38:35.551Z,8.63
2023-01-04T05:41:55.578Z,10.20
2023-01-04T05:44:58.526Z,9.57
2023-01-04T05:47:59.979Z,11.25
2023-01-04T05:51:01.259Z,9.20
2023-01-04T05:54:03.817Z,7.15
2023-01-04T05:57:05.239Z,7.78
2023-01-04T06:00:09.460Z,9.70
2023-01-04T06:06:32.073Z,8.67
2023-01-04T06:09:34.813Z,10.25
2023-01-04T06:12:36.150Z,9.50
2023-01-04T06:15:43.023Z,7.90
2023-01-04T06:18:44.741Z,9.70
2023-01-04T06:21:47.483Z,8.90
2023-01-04T06:24:50.532Z,8.02
2023-01-04T06:27:51.843Z,9.40
2023-01-04T06:30:53.854Z,8.43
2023-01-04T06:33:55.261Z,8.93
2023-01-04T06:36:58.115Z,10.00
2023-01-04T06:40:01.096Z,11.13
2023-01-04T06:43:02.558Z,9.45
2023-01-04T06:46:06.269Z,8.55
2023-01-04T06:49:07.614Z,8.40
2023-01-04T06:52:09.817Z,8.73
2023-01-04T06:55:11.185Z,7.70
2023-01-04T06:58:13.822Z,8.38
2023-01-04T07:01:17.204Z,8.55
2023-01-04T07:04:18.591Z,7.78
2023-01-04T07:07:19.985Z,7.47
2023-01-04T07:10:21.911Z,8.00
2023-01-04T07:13:27.318Z,10.35
2023-01-04T07:16:30.913Z,8.75
2023-01-04T07:19:32.391Z,7.30
2023-01-04T07:22:35.791Z,7.77
2023-01-04T07:25:37.103Z,8.82
2023-01-04T07:28:56.770Z,6.22
2023-01-04T07:31:59.043Z,6.13
2023-01-04T07:35:00.363Z,7.00
2023-01-04T07:38:03.914Z,6.80
2023-01-04T07:41:05.460Z,6.88
2023-01-04T07:44:08.275Z,6.30
2023-01-04T07:47:11.797Z,8.48
2023-01-04T07:50:13.106Z,6.78
2023-01-04T07:53:15.724Z,7.27
2023-01-04T07:56:18.993Z,7.72
2023-01-04T07:59:22.050Z,6.00
2023-01-04T08:02:25.712Z,6.18
2023-01-04T08:05:27.337Z,6.57
2023-01-04T08:11:49.955Z,6.53
2023-01-04T08:14:52.536Z,6.32
2023-01-04T08:17:55.446Z,5.57
2023-01-04T08:21:05.213Z,8.20
2023-01-04T08:24:08.637Z,5.97
2023-01-04T08:27:10.370Z,6.47
2023-01-04T08:30:12.044Z,5.20
2023-01-04T08:33:15.823Z,7.60
2023-01-04T08:36:24.382Z,5.23
2023-01-04T08:39:28.800Z,5.53
2023-01-04T08:42:31.780Z,5.53
2023-01-04T08:45:33.807Z,6.45
2023-01-04T08:48:36.479Z,5.60
2023-01-04T08:51:39.370Z,6.40
2023-01-04T08:58:02.908Z,9.55
2023-01-04T09:01:06.339Z,7.60
2023-01-04T09:04:08.523Z,5.63
2023-01-04T09:07:11.474Z,9.00
2023-01-04T09:13:34.950Z,7.20
2023-01-04T09:16:38.716Z,6.78
2023-01-04T09:19:40.791Z,8.43
2023-01-04T09:22:42.353Z,8.20
2023-01-04T09:25:43.929Z,6.50
2023-01-04T09:28:45.334Z,8.73
2023-01-04T09:31:46.774Z,7.63
2023-01-04T09:38:09.693Z,5.47
2023-01-04T09:41:21.660Z,7.57
2023-01-04T09:45:02.942Z,6.53
2023-01-04T09:47:58.760Z,5.88
2023-01-04T09:51:05.754Z,8.93
2023-01-04T09:54:15.295Z,7.30
2023-01-04T09:57:24.787Z,7.80
2023-01-04T10:00:30.375Z,6.28
2023-01-04T10:03:34.842Z,6.25
2023-01-04T10:06:38.726Z,7.40
2023-01-04T10:09:40.446Z,10.10
2023-01-04T10:12:59.504Z,7.45
2023-01-04T10:16:17.298Z,8.05
2023-01-04T10:23:02.778Z,6.97
2023-01-04T10:26:12.066Z,7.50
2023-01-04T10:29:38.539Z,8.02
2023-01-04T10:32:42.217Z,7.25
2023-01-04T10:35:45.037Z,7.70
2023-01-04T10:38:54.822Z,6.87
2023-01-04T10:41:59.926Z,6.73
2023-01-04T10:45:15.580Z,7.55
2023-01-04T10:51:55.722Z,5.53
2023-01-04T10:55:04.385Z,7.77
2023-01-04T10:58:14.899Z,6.77
2023-01-04T11:04:51.394Z,7.28
2023-01-04T11:07:59.338Z,7.20
2023-01-04T11:11:05.396Z,6.67
2023-01-04T11:14:07.043Z,6.73
2023-01-04T11:17:11.330Z,7.18
2023-01-04T11:20:12.845Z,6.72
2023-01-04T11:23:17.108Z,6.20
2023-01-04T11:26:22.663Z,6.67
2023-01-04T11:29:33.080Z,5.70
2023-01-04T11:32:39.985Z,7.20
2023-01-04T11:35:44.679Z,8.00
2023-01-04T11:38:55.057Z,6.50
2023-01-04T11:42:03.416Z,6.50
2023-01-04T11:45:05.958Z,6.47
2023-01-04T11:48:15.033Z,6.85
2023-01-04T11:51:21.269Z,5.80
2023-01-04T11:54:23.092Z,7.13
2023-01-04T11:57:26.551Z,6.20
2023-01-04T12:00:27.929Z,7.93
2023-01-04T12:03:31.857Z,7.20
2023-01-04T12:06:38.306Z,6.80
2023-01-04T12:09:40.877Z,7.15
2023-01-04T12:12:43.599Z,8.20
2023-01-04T12:15:55.798Z,6.20
2023-01-04T12:18:57.716Z,6.35
2023-01-04T12:22:02.096Z,6.68
2023-01-04T12:25:05.818Z,6.68
2023-01-04T12:28:29.599Z,7.80
2023-01-04T12:31:34.115Z,5.60
2023-01-04T12:34:41.765Z,6.07
2023-01-04T12:37:49.887Z,6.13
2023-01-04T12:40:55.442Z,6.78
2023-01-04T12:43:58.698Z,6.17
2023-01-04T12:47:18.026Z,6.03
2023-01-04T12:50:23.778Z,6.43
2023-01-04T12:53:54.383Z,6.00
2023-01-04T12:57:26.329Z,6.97
2023-01-04T13:01:03.897Z,8.87
2023-01-04T13:04:30.536Z,6.50
2023-01-04T13:07:42.870Z,7.47
2023-01-04T13:10:50.310Z,6.45
2023-01-04T13:13:58.795Z,7.43
2023-01-04T13:20:40.189Z,6.87
2023-01-04T13:23:48.176Z,6.60
2023-01-04T13:26:51.772Z,7.50
2023-01-04T13:29:53.191Z,5.75
2023-01-04T13:33:24.982Z,6.40
2023-01-04T13:36:18.231Z,6.73
2023-01-04T13:39:20.149Z,6.95
2023-01-04T13:42:27.082Z,6.45
2023-01-04T13:45:36.972Z,8.43
2023-01-04T13:48:42.292Z,6.80
2023-01-04T13:51:44.376Z,6.10
2023-01-04T13:54:46.977Z,8.25
2023-01-04T13:57:55.453Z,6.22
2023-01-04T14:01:00.972Z,7.03
2023-01-04T14:04:05.526Z,5.70
2023-01-04T14:07:07.813Z,7.67
2023-01-04T14:10:18.624Z,7.25
2023-01-04T14:13:20.506Z,6.25
2023-01-04T14:16:23.120Z,6.57
2023-01-04T14:19:42.427Z,6.33
2023-01-04T14:22:52.681Z,6.20
2023-01-04T14:25:58.221Z,5.88
2023-01-04T14:29:22.578Z,5.40
2023-01-04T14:32:24.559Z,6.03
2023-01-04T14:35:29.115Z,6.43
2023-01-04T14:38:36.018Z,6.10
2023-01-04T14:41:45.081Z,5.80
2023-01-04T14:44:47.196Z,5.35
2023-01-04T14:47:50.385Z,5.72
2023-01-04T14:50:52.040Z,7.03
2023-01-04T14:53:54.790Z,6.40
2023-01-04T14:56:58.319Z,5.85
2023-01-04T14:59:59.648Z,5.13
2023-01-04T15:03:01.451Z,5.03
2023-01-04T15:06:03.723Z,6.37
2023-01-04T15:09:07.297Z,6.13
2023-01-04T15:12:08.639Z,5.60
2023-01-04T15:15:12.724Z,5.38
2023-01-04T15:18:15.744Z,6.38
2023-01-04T15:21:17.098Z,5.80
2023-01-04T15:24:19.507Z,6.93
2023-01-04T15:27:24.370Z,7.00
2023-01-04T15:30:28.623Z,4.75
2023-01-04T15:33:31.376Z,5.57
2023-01-04T15:36:34.364Z,5.37
2023-01-04T15:39:37.118Z,4.50
2023-01-04T15:42:56.917Z,5.82
2023-01-04T15:46:04.190Z,4.78
2023-01-04T15:49:07.363Z,6.17
2023-01-04T15:52:12.039Z,4.80
2023-01-04T15:55:15.586Z,5.83
2023-01-04T15:58:18.415Z,3.67
2023-01-04T16:01:20.714Z,4.47
2023-01-04T16:04:22.404Z,4.70
2023-01-04T16:07:24.814Z,4.93
2023-01-04T16:10:28.767Z,4.07
2023-01-04T16:13:30.676Z,3.43
2023-01-04T16:16:33.365Z,3.95
2023-01-04T16:19:34.757Z,4.25
2023-01-04T16:22:37.478Z,4.87
2023-01-04T16:25:40.726Z,5.20
2023-01-04T16:28:42.386Z,4.68
2023-01-04T16:31:44.716Z,5.15
2023-01-04T16:34:46.318Z,9.60
2023-01-04T16:37:47.756Z,6.13
2023-01-04T16:40:58.401Z,5.03
2023-01-04T16:44:01.496Z,6.03
2023-01-04T16:47:03.120Z,5.13
2023-01-04T16:50:06.377Z,5.95
2023-01-04T16:53:07.964Z,5.80
2023-01-04T16:56:13.279Z,4.72
2023-01-04T16:59:17.958Z,6.35
2023-01-04T17:02:19.490Z,3.28
2023-01-04T17:05:21.190Z,5.28
2023-01-04T17:08:27.168Z,4.83
2023-01-04T17:15:14.857Z,3.92
2023-01-04T17:18:14.470Z,5.43
2023-01-04T17:21:33.222Z,4.95
2023-01-04T17:24:35.376Z,3.90
2023-01-04T17:27:38.808Z,4.63
2023-01-04T17:30:43.423Z,5.07
2023-01-04T17:33:45.127Z,3.67
2023-01-04T17:36:47.768Z,3.70
2023-01-04T17:39:49.291Z,5.10
2023-01-04T17:42:52.946Z,3.55
2023-01-04T17:45:54.492Z,3.80
2023-01-04T17:49:21.675Z,4.53
2023-01-04T17:52:25.941Z,3.78
2023-01-04T17:55:35.188Z,4.70
2023-01-04T17:58:38.017Z,6.80
2023-01-04T18:01:39.774Z,3.28
2023-01-04T18:04:42.531Z,4.32
2023-01-04T18:07:44.229Z,4.57
2023-01-04T18:14:14.059Z,2.83
2023-01-04T18:17:15.913Z,2.85
2023-01-04T18:20:24.716Z,3.65
2023-01-04T18:23:28.675Z,4.90
2023-01-04T18:26:41.616Z,4.63
2023-01-04T18:29:56.727Z,3.92
2023-01-04T18:32:58.337Z,3.75
2023-01-04T18:36:02.805Z,3.97
2023-01-04T18:39:04.369Z,4.38
2023-01-04T18:42:09.025Z,5.60
2023-01-04T18:45:11.429Z,3.72
2023-01-04T18:48:12.738Z,4.03
2023-01-04T18:51:15.030Z,4.60
2023-01-04T18:54:19.926Z,4.40
2023-01-04T18:57:22.436Z,2.60
2023-01-04T19:00:29.313Z,3.53
2023-01-04T19:03:37.329Z,4.45
2023-01-04T19:06:40.949Z,3.15
2023-01-04T19:09:42.931Z,5.28
2023-01-04T19:12:48.686Z,3.00
2023-01-04T19:15:50.782Z,3.00
2023-01-04T19:18:53.310Z,4.82
2023-01-04T19:21:54.587Z,3.20
2023-01-04T19:24:56.054Z,4.57
2023-01-04T19:27:57.357Z,4.57
2023-01-04T19:31:05.644Z,5.65
2023-01-04T19:34:08.656Z,4.53
2023-01-04T19:37:10.011Z,3.30
2023-01-04T19:40:14.137Z,4.97
2023-01-04T19:43:15.458Z,4.17
2023-01-04T19:46:18.294Z,3.67
2023-01-04T19:49:21.134Z,3.70
2023-01-04T19:52:23.573Z,3.47
2023-01-04T19:55:29.131Z,3.83
2023-01-04T19:58:32.444Z,3.27
2023-01-04T20:04:55.577Z,2.70
2023-01-04T20:07:57.309Z,3.55
2023-01-04T20:11:00.033Z,3.17
2023-01-04T20:14:01.211Z,2.90
2023-01-04T20:17:03.203Z,3.13
2023-01-04T20:20:05.312Z,3.80
2023-01-04T20:23:07.210Z,3.58
2023-01-04T20:26:11.802Z,3.95
2023-01-04T20:29:13.168Z,4.50
2023-01-04T20:32:16.347Z,3.47
2023-01-04T20:35:19.209Z,3.55
2023-01-04T20:38:22.125Z,2.95
2023-01-04T20:41:24.407Z,4.85
2023-01-04T20:44:27.230Z,4.10
2023-01-04T20:47:31.613Z,3.78
2023-01-04T20:50:35.152Z,3.15
2023-01-04T20:53:38.679Z,5.88
2023-01-04T20:56:40.486Z,3.80
2023-01-04T20:59:43.571Z,4.43
2023-01-04T21:02:47.154Z,6.97
2023-01-04T21:05:48.557Z,3.40
2023-01-04T21:08:51.807Z,4.35
2023-01-04T21:11:55.750Z,5.00
2023-01-04T21:14:58.609Z,5.60
2023-01-04T21:18:00.781Z,4.47
2023-01-04T21:21:05.105Z,3.83
2023-01-04T21:24:08.307Z,4.85
2023-01-04T21:27:09.648Z,6.45
2023-01-04T21:30:12.205Z,5.33
2023-01-04T21:33:15.893Z,4.70
2023-01-04T21:36:20.702Z,5.63
2023-01-04T21:39:22.091Z,5.15
2023-01-04T21:42:24.633Z,4.72
2023-01-04T21:45:26.135Z,4.77
2023-01-04T21:48:29.405Z,6.47
2023-01-04T21:51:31.321Z,6.32
2023-01-04T21:54:33.859Z,5.47
2023-01-04T21:57:35.779Z,5.20
2023-01-04T22:04:02.166Z,5.05
2023-01-04T22:07:03.508Z,5.75
2023-01-04T22:10:05.488Z,4.72
2023-01-04T22:13:07.287Z,4.97
2023-01-04T22:16:10.651Z,5.30
2023-01-04T22:19:13.875Z,4.60
2023-01-04T22:22:16.428Z,5.40
2023-01-04T22:25:19.021Z,5.68
2023-01-04T22:28:20.353Z,7.53
2023-01-04T22:31:21.793Z,6.37
2023-01-04T22:34:24.648Z,5.03
2023-01-04T22:37:27.218Z,3.85
2023-01-04T22:40:29.758Z,3.83
2023-01-04T22:43:31.020Z,5.90
2023-01-04T22:46:35.071Z,7.10
2023-01-04T22:49:37.072Z,3.83
2023-01-04T22:52:39.653Z,4.03
2023-01-04T22:56:16.994Z,4.22
2023-01-04T22:59:02.260Z,3.67
2023-01-04T23:02:03.856Z,6.57
2023-01-04T23:05:06.639Z,4.70
2023-01-04T23:08:09.203Z,3.63
2023-01-04T23:11:14.248Z,2.75
2023-01-04T23:14:16.741Z,4.22
2023-01-04T23:17:19.288Z,4.68
2023-01-04T23:20:21.251Z,3.92
2023-01-04T23:26:44.338Z,7.28
2023-01-04T23:29:47.212Z,3.97
2023-01-04T23:32:48.526Z,5.47
2023-01-04T23:35:51.701Z,5.67
2023-01-04T23:38:54.958Z,5.38
2023-01-04T23:41:57.678Z,3.88
2023-01-04T23:44:58.995Z,4.35
2023-01-04T23:48:00.312Z,7.63
2023-01-04T23:51:02.367Z,4.00
2023-01-04T23:57:25.386Z,7.97
